sensor_id;sensor_type;location;lat;lon;timestamp;pressure;altitude;pressure_sealevel;temperature;humidity
47054;BME280;32811;52.382;5.270;2023-04-02T00:00:36;101364.00;;;4.98;100.00
47054;BME280;32811;52.382;5.270;2023-04-02T00:03:22;101368.09;;;4.93;100.00
47054;BME280;32811;52.382;5.270;2023-04-02T00:05:48;101369.72;;;4.91;100.00
47054;BME280;32811;52.382;5.270;2023-04-02T00:08:22;101393.09;;;5.02;100.00
47054;BME280;32811;52.382;5.270;2023-04-02T00:10:52;101387.97;;;5.02;100.00
47054;BME280;32811;52.382;5.270;2023-04-02T00:13:29;101365.84;;;4.78;100.00
47054;BME280;32811;52.382;5.270;2023-04-02T00:15:57;101383.31;;;4.90;100.00
47054;BME280;32811;52.382;5.270;2023-04-02T00:18:25;101392.75;;;4.91;100.00
47054;BME280;32811;52.382;5.270;2023-04-02T00:21:06;101395.22;;;4.90;100.00
47054;BME280;32811;52.382;5.270;2023-04-02T00:23:41;101404.00;;;4.96;100.00
47054;BME280;32811;52.382;5.270;2023-04-02T00:26:22;101409.97;;;4.97;100.00
47054;BME280;32811;52.382;5.270;2023-04-02T00:28:50;101414.88;;;4.91;100.00
47054;BME280;32811;52.382;5.270;2023-04-02T00:31:18;101411.34;;;4.87;100.00
47054;BME280;32811;52.382;5.270;2023-04-02T00:33:47;101399.00;;;4.77;100.00
47054;BME280;32811;52.382;5.270;2023-04-02T00:36:14;101426.72;;;4.89;100.00
47054;BME280;32811;52.382;5.270;2023-04-02T00:38:46;101411.09;;;4.81;100.00
47054;BME280;32811;52.382;5.270;2023-04-02T00:41:18;101435.97;;;4.85;100.00
47054;BME280;32811;52.382;5.270;2023-04-02T00:43:48;101441.28;;;4.90;100.00
47054;BME280;32811;52.382;5.270;2023-04-02T00:46:20;101448.94;;;4.90;100.00
47054;BME280;32811;52.382;5.270;2023-04-02T00:49:00;101441.72;;;4.79;100.00
47054;BME280;32811;52.382;5.270;2023-04-02T00:51:34;101441.88;;;4.83;100.00
47054;BME280;32811;52.382;5.270;2023-04-02T00:54:04;101451.25;;;4.84;100.00
47054;BME280;32811;52.382;5.270;2023-04-02T00:56:41;101440.97;;;4.82;100.00
47054;BME280;32811;52.382;5.270;2023-04-02T00:59:30;101457.16;;;4.81;100.00
47054;BME280;32811;52.382;5.270;2023-04-02T01:05:01;101453.47;;;4.74;100.00
47054;BME280;32811;52.382;5.270;2023-04-02T01:15:39;101491.72;;;4.71;100.00
47054;BME280;32811;52.382;5.270;2023-04-02T01:21:13;101491.72;;;4.71;100.00
47054;BME280;32811;52.382;5.270;2023-04-02T01:23:53;101493.53;;;4.74;100.00
47054;BME280;32811;52.382;5.270;2023-04-02T01:26:42;101500.88;;;4.66;100.00
47054;BME280;32811;52.382;5.270;2023-04-02T01:29:13;101500.78;;;4.63;100.00
47054;BME280;32811;52.382;5.270;2023-04-02T01:31:41;101498.81;;;4.56;100.00
47054;BME280;32811;52.382;5.270;2023-04-02T01:34:13;101508.38;;;4.62;100.00
47054;BME280;32811;52.382;5.270;2023-04-02T01:37:05;101509.03;;;4.56;100.00
47054;BME280;32811;52.382;5.270;2023-04-02T01:42:21;101517.03;;;4.43;100.00
47054;BME280;32811;52.382;5.270;2023-04-02T01:44:52;101527.50;;;4.49;100.00
47054;BME280;32811;52.382;5.270;2023-04-02T01:47:23;101536.03;;;4.49;100.00
47054;BME280;32811;52.382;5.270;2023-04-02T01:50:02;101535.97;;;4.48;100.00
47054;BME280;32811;52.382;5.270;2023-04-02T01:52:36;101544.50;;;4.48;100.00
47054;BME280;32811;52.382;5.270;2023-04-02T01:55:04;101545.50;;;4.52;100.00
47054;BME280;32811;52.382;5.270;2023-04-02T01:57:31;101547.97;;;4.50;100.00
47054;BME280;32811;52.382;5.270;2023-04-02T01:59:59;101547.53;;;4.40;100.00
47054;BME280;32811;52.382;5.270;2023-04-02T02:02:27;101564.91;;;4.47;100.00
47054;BME280;32811;52.382;5.270;2023-04-02T02:04:54;101559.59;;;4.42;100.00
47054;BME280;32811;52.382;5.270;2023-04-02T02:07:21;101555.78;;;4.32;100.00
47054;BME280;32811;52.382;5.270;2023-04-02T02:09:49;101573.09;;;4.40;100.00
47054;BME280;32811;52.382;5.270;2023-04-02T02:12:16;101573.00;;;4.36;100.00
47054;BME280;32811;52.382;5.270;2023-04-02T02:14:47;101577.28;;;4.37;100.00
47054;BME280;32811;52.382;5.270;2023-04-02T02:17:17;101574.53;;;4.33;100.00
47054;BME280;32811;52.382;5.270;2023-04-02T02:19:47;101581.59;;;4.39;100.00
47054;BME280;32811;52.382;5.270;2023-04-02T02:22:30;101595.06;;;4.34;100.00
47054;BME280;32811;52.382;5.270;2023-04-02T02:25:01;101590.69;;;4.32;100.00
47054;BME280;32811;52.382;5.270;2023-04-02T02:32:33;101596.91;;;4.18;100.00
47054;BME280;32811;52.382;5.270;2023-04-02T02:35:20;101608.00;;;4.18;100.00
47054;BME280;32811;52.382;5.270;2023-04-02T02:37:56;101615.84;;;4.23;100.00
47054;BME280;32811;52.382;5.270;2023-04-02T02:40:37;101627.06;;;4.26;100.00
47054;BME280;32811;52.382;5.270;2023-04-02T02:43:09;101620.69;;;4.16;100.00
47054;BME280;32811;52.382;5.270;2023-04-02T02:45:38;101619.47;;;4.08;100.00
47054;BME280;32811;52.382;5.270;2023-04-02T02:48:12;101648.19;;;4.03;100.00
47054;BME280;32811;52.382;5.270;2023-04-02T02:50:41;101651.63;;;4.03;100.00
47054;BME280;32811;52.382;5.270;2023-04-02T02:53:19;101658.44;;;4.03;100.00
47054;BME280;32811;52.382;5.270;2023-04-02T02:55:50;101661.53;;;3.95;100.00
47054;BME280;32811;52.382;5.270;2023-04-02T02:58:22;101645.44;;;3.79;100.00
47054;BME280;32811;52.382;5.270;2023-04-02T03:00:49;101652.75;;;3.90;100.00
47054;BME280;32811;52.382;5.270;2023-04-02T03:03:19;101645.34;;;3.77;100.00
47054;BME280;32811;52.382;5.270;2023-04-02T03:05:52;101676.69;;;3.92;100.00
47054;BME280;32811;52.382;5.270;2023-04-02T03:08:29;101669.81;;;3.72;100.00
47054;BME280;32811;52.382;5.270;2023-04-02T03:11:04;101667.91;;;3.68;100.00
47054;BME280;32811;52.382;5.270;2023-04-02T03:13:33;101688.75;;;3.58;100.00
47054;BME280;32811;52.382;5.270;2023-04-02T03:16:22;101696.59;;;3.62;100.00
47054;BME280;32811;52.382;5.270;2023-04-02T03:18:56;101697.06;;;3.53;100.00
47054;BME280;32811;52.382;5.270;2023-04-02T03:24:21;101705.44;;;3.51;100.00
47054;BME280;32811;52.382;5.270;2023-04-02T03:26:55;101711.00;;;3.42;100.00
47054;BME280;32811;52.382;5.270;2023-04-02T03:29:26;101725.03;;;3.52;100.00
47054;BME280;32811;52.382;5.270;2023-04-02T03:31:58;101728.13;;;3.45;100.00
47054;BME280;32811;52.382;5.270;2023-04-02T03:34:43;101745.75;;;3.40;100.00
47054;BME280;32811;52.382;5.270;2023-04-02T03:37:17;101746.06;;;3.46;100.00
47054;BME280;32811;52.382;5.270;2023-04-02T03:42:27;101748.88;;;3.35;100.00
47054;BME280;32811;52.382;5.270;2023-04-02T03:45:03;101757.34;;;3.33;100.00
47054;BME280;32811;52.382;5.270;2023-04-02T03:47:35;101771.28;;;3.40;100.00
47054;BME280;32811;52.382;5.270;2023-04-02T03:50:05;101772.78;;;3.37;100.00
47054;BME280;32811;52.382;5.270;2023-04-02T03:52:35;101779.44;;;3.33;100.00
47054;BME280;32811;52.382;5.270;2023-04-02T03:55:11;101762.78;;;3.23;100.00
47054;BME280;32811;52.382;5.270;2023-04-02T04:03:30;101800.50;;;3.29;100.00
47054;BME280;32811;52.382;5.270;2023-04-02T04:09:00;101802.94;;;3.09;100.00
47054;BME280;32811;52.382;5.270;2023-04-02T04:11:35;101816.25;;;3.04;100.00
47054;BME280;32811;52.382;5.270;2023-04-02T04:14:11;101829.25;;;3.08;100.00
47054;BME280;32811;52.382;5.270;2023-04-02T04:16:50;101827.34;;;3.04;100.00
47054;BME280;32811;52.382;5.270;2023-04-02T04:19:27;101842.06;;;2.94;100.00
47054;BME280;32811;52.382;5.270;2023-04-02T04:22:14;101819.44;;;2.83;100.00
47054;BME280;32811;52.382;5.270;2023-04-02T04:24:44;101841.13;;;2.91;100.00
47054;BME280;32811;52.382;5.270;2023-04-02T04:27:28;101848.53;;;2.87;100.00
47054;BME280;32811;52.382;5.270;2023-04-02T04:30:14;101857.31;;;2.76;100.00
47054;BME280;32811;52.382;5.270;2023-04-02T04:32:49;101842.97;;;2.61;100.00
47054;BME280;32811;52.382;5.270;2023-04-02T04:35:28;101869.13;;;2.59;100.00
47054;BME280;32811;52.382;5.270;2023-04-02T04:38:02;101840.59;;;2.33;100.00
47054;BME280;32811;52.382;5.270;2023-04-02T04:40:34;101881.94;;;2.44;100.00
47054;BME280;32811;52.382;5.270;2023-04-02T04:43:06;101894.69;;;2.44;100.00
47054;BME280;32811;52.382;5.270;2023-04-02T04:48:26;101903.06;;;2.26;100.00
47054;BME280;32811;52.382;5.270;2023-04-02T04:51:00;101907.47;;;2.14;100.00
47054;BME280;32811;52.382;5.270;2023-04-02T04:53:29;101906.72;;;2.00;100.00
47054;BME280;32811;52.382;5.270;2023-04-02T04:55:58;101929.63;;;2.00;100.00
47054;BME280;32811;52.382;5.270;2023-04-02T04:58:55;101935.78;;;1.89;100.00
47054;BME280;32811;52.382;5.270;2023-04-02T05:02:05;101936.72;;;1.76;100.00
47054;BME280;32811;52.382;5.270;2023-04-02T05:04:39;101943.34;;;1.73;100.00
47054;BME280;32811;52.382;5.270;2023-04-02T05:07:10;101945.06;;;1.59;100.00
47054;BME280;32811;52.382;5.270;2023-04-02T05:09:43;101964.19;;;1.67;100.00
47054;BME280;32811;52.382;5.270;2023-04-02T05:12:34;101969.81;;;1.61;100.00
47054;BME280;32811;52.382;5.270;2023-04-02T05:15:15;101975.41;;;1.56;100.00
47054;BME280;32811;52.382;5.270;2023-04-02T05:18:10;101981.38;;;1.56;100.00
47054;BME280;32811;52.382;5.270;2023-04-02T05:21:03;101995.22;;;1.47;100.00
47054;BME280;32811;52.382;5.270;2023-04-02T05:23:43;101987.88;;;1.51;100.00
47054;BME280;32811;52.382;5.270;2023-04-02T05:26:19;101999.53;;;1.48;100.00
47054;BME280;32811;52.382;5.270;2023-04-02T05:31:34;102006.69;;;1.40;100.00
47054;BME280;32811;52.382;5.270;2023-04-02T05:34:03;101987.25;;;1.27;100.00
47054;BME280;32811;52.382;5.270;2023-04-02T05:36:30;102014.06;;;1.35;100.00
47054;BME280;32811;52.382;5.270;2023-04-02T05:38:58;102012.38;;;1.36;100.00
47054;BME280;32811;52.382;5.270;2023-04-02T05:41:28;102023.47;;;1.36;100.00
47054;BME280;32811;52.382;5.270;2023-04-02T05:44:23;102000.31;;;1.18;100.00
47054;BME280;32811;52.382;5.270;2023-04-02T05:46:57;102025.59;;;1.43;100.00
47054;BME280;32811;52.382;5.270;2023-04-02T05:49:50;102033.22;;;1.43;100.00
47054;BME280;32811;52.382;5.270;2023-04-02T05:52:45;102037.44;;;1.43;100.00
47054;BME280;32811;52.382;5.270;2023-04-02T05:57:48;102058.38;;;1.39;100.00
47054;BME280;32811;52.382;5.270;2023-04-02T06:03:07;102065.09;;;1.38;100.00
47054;BME280;32811;52.382;5.270;2023-04-02T06:05:41;102067.66;;;1.38;100.00
47054;BME280;32811;52.382;5.270;2023-04-02T06:08:41;102078.59;;;1.51;100.00
47054;BME280;32811;52.382;5.270;2023-04-02T06:11:15;102087.19;;;1.53;100.00
47054;BME280;32811;52.382;5.270;2023-04-02T06:13:44;102078.72;;;1.39;100.00
47054;BME280;32811;52.382;5.270;2023-04-02T06:16:13;102072.38;;;1.32;100.00
47054;BME280;32811;52.382;5.270;2023-04-02T06:18:42;102110.19;;;1.54;100.00
47054;BME280;32811;52.382;5.270;2023-04-02T06:21:13;102112.06;;;1.43;100.00
47054;BME280;32811;52.382;5.270;2023-04-02T06:23:46;102115.31;;;1.41;100.00
47054;BME280;32811;52.382;5.270;2023-04-02T06:26:36;102135.03;;;1.45;100.00
47054;BME280;32811;52.382;5.270;2023-04-02T06:31:38;102142.69;;;1.45;100.00
47054;BME280;32811;52.382;5.270;2023-04-02T06:34:16;102138.88;;;1.38;100.00
47054;BME280;32811;52.382;5.270;2023-04-02T06:36:44;102144.16;;;1.41;100.00
47054;BME280;32811;52.382;5.270;2023-04-02T06:39:17;102156.88;;;1.55;100.00
47054;BME280;32811;52.382;5.270;2023-04-02T06:41:45;102126.84;;;1.36;100.00
47054;BME280;32811;52.382;5.270;2023-04-02T06:44:17;102158.75;;;1.44;100.00
47054;BME280;32811;52.382;5.270;2023-04-02T06:46:51;102165.22;;;1.39;100.00
47054;BME280;32811;52.382;5.270;2023-04-02T06:49:29;102171.88;;;1.37;100.00
47054;BME280;32811;52.382;5.270;2023-04-02T06:52:00;102164.13;;;1.35;100.00
47054;BME280;32811;52.382;5.270;2023-04-02T06:54:28;102184.47;;;1.49;100.00
47054;BME280;32811;52.382;5.270;2023-04-02T06:56:55;102183.75;;;1.64;100.00
47054;BME280;32811;52.382;5.270;2023-04-02T06:59:22;102155.13;;;1.40;100.00
47054;BME280;32811;52.382;5.270;2023-04-02T07:01:55;102195.91;;;1.69;100.00
47054;BME280;32811;52.382;5.270;2023-04-02T07:04:23;102177.81;;;1.51;100.00
47054;BME280;32811;52.382;5.270;2023-04-02T07:06:50;102199.72;;;1.62;100.00
47054;BME280;32811;52.382;5.270;2023-04-02T07:09:17;102213.88;;;1.72;100.00
47054;BME280;32811;52.382;5.270;2023-04-02T07:11:44;102224.47;;;1.64;100.00
47054;BME280;32811;52.382;5.270;2023-04-02T07:14:11;102229.38;;;1.75;100.00
47054;BME280;32811;52.382;5.270;2023-04-02T07:16:40;102233.25;;;1.83;100.00
47054;BME280;32811;52.382;5.270;2023-04-02T07:19:17;102234.31;;;2.00;100.00
47054;BME280;32811;52.382;5.270;2023-04-02T07:21:44;102242.63;;;2.11;100.00
47054;BME280;32811;52.382;5.270;2023-04-02T07:24:12;102214.84;;;1.87;100.00
47054;BME280;32811;52.382;5.270;2023-04-02T07:26:39;102238.03;;;1.92;100.00
47054;BME280;32811;52.382;5.270;2023-04-02T07:29:07;102240.59;;;1.92;100.00
47054;BME280;32811;52.382;5.270;2023-04-02T07:31:37;102244.63;;;1.88;100.00
47054;BME280;32811;52.382;5.270;2023-04-02T07:34:04;102255.66;;;2.02;100.00
47054;BME280;32811;52.382;5.270;2023-04-02T07:36:31;102236.59;;;1.95;100.00
47054;BME280;32811;52.382;5.270;2023-04-02T07:38:58;102270.75;;;2.12;100.00
47054;BME280;32811;52.382;5.270;2023-04-02T07:41:24;102272.88;;;2.19;100.00
47054;BME280;32811;52.382;5.270;2023-04-02T07:43:52;102257.91;;;2.11;100.00
47054;BME280;32811;52.382;5.270;2023-04-02T07:46:18;102238.38;;;2.24;100.00
47054;BME280;32811;52.382;5.270;2023-04-02T07:48:46;102281.06;;;2.28;100.00
47054;BME280;32811;52.382;5.270;2023-04-02T07:51:18;102286.31;;;2.73;100.00
47054;BME280;32811;52.382;5.270;2023-04-02T07:53:45;102291.63;;;2.63;100.00
47054;BME280;32811;52.382;5.270;2023-04-02T07:56:18;102297.59;;;2.91;100.00
47054;BME280;32811;52.382;5.270;2023-04-02T07:58:45;102295.94;;;3.37;100.00
47054;BME280;32811;52.382;5.270;2023-04-02T08:01:16;102299.09;;;2.60;100.00
47054;BME280;32811;52.382;5.270;2023-04-02T08:03:43;102305.50;;;2.53;100.00
47054;BME280;32811;52.382;5.270;2023-04-02T08:06:10;102313.09;;;2.38;100.00
47054;BME280;32811;52.382;5.270;2023-04-02T08:08:38;102308.88;;;2.25;100.00
47054;BME280;32811;52.382;5.270;2023-04-02T08:11:05;102308.63;;;2.07;100.00
47054;BME280;32811;52.382;5.270;2023-04-02T08:13:32;102292.09;;;2.42;100.00
47054;BME280;32811;52.382;5.270;2023-04-02T08:15:59;102299.22;;;2.61;100.00
47054;BME280;32811;52.382;5.270;2023-04-02T08:18:27;102318.75;;;3.48;100.00
47054;BME280;32811;52.382;5.270;2023-04-02T08:20:55;102306.81;;;3.79;100.00
47054;BME280;32811;52.382;5.270;2023-04-02T08:23:22;102295.09;;;3.82;100.00
47054;BME280;32811;52.382;5.270;2023-04-02T08:25:49;102306.53;;;3.89;100.00
47054;BME280;32811;52.382;5.270;2023-04-02T08:28:16;102343.41;;;4.09;100.00
47054;BME280;32811;52.382;5.270;2023-04-02T08:30:43;102338.84;;;3.88;100.00
47054;BME280;32811;52.382;5.270;2023-04-02T08:33:13;102317.47;;;3.86;100.00
47054;BME280;32811;52.382;5.270;2023-04-02T08:35:39;102314.75;;;4.14;100.00
47054;BME280;32811;52.382;5.270;2023-04-02T08:38:06;102357.78;;;4.38;100.00
47054;BME280;32811;52.382;5.270;2023-04-02T08:40:55;102355.00;;;4.50;100.00
47054;BME280;32811;52.382;5.270;2023-04-02T08:46:25;102359.66;;;4.90;100.00
47054;BME280;32811;52.382;5.270;2023-04-02T08:49:01;102368.59;;;4.82;100.00
47054;BME280;32811;52.382;5.270;2023-04-02T08:51:33;102385.25;;;4.90;100.00
47054;BME280;32811;52.382;5.270;2023-04-02T08:54:14;102371.97;;;4.97;100.00
47054;BME280;32811;52.382;5.270;2023-04-02T08:56:51;102376.69;;;5.06;100.00
47054;BME280;32811;52.382;5.270;2023-04-02T08:59:29;102383.47;;;4.89;100.00
47054;BME280;32811;52.382;5.270;2023-04-02T09:02:33;102380.72;;;5.35;100.00
47054;BME280;32811;52.382;5.270;2023-04-02T09:05:04;102375.38;;;5.82;100.00
47054;BME280;32811;52.382;5.270;2023-04-02T09:07:32;102382.34;;;5.67;100.00
47054;BME280;32811;52.382;5.270;2023-04-02T09:09:59;102358.06;;;5.43;100.00
47054;BME280;32811;52.382;5.270;2023-04-02T09:12:30;102358.59;;;5.71;100.00
47054;BME280;32811;52.382;5.270;2023-04-02T09:17:37;102383.28;;;5.35;100.00
47054;BME280;32811;52.382;5.270;2023-04-02T09:20:23;102408.56;;;5.45;100.00
47054;BME280;32811;52.382;5.270;2023-04-02T09:22:52;102407.19;;;5.35;100.00
47054;BME280;32811;52.382;5.270;2023-04-02T09:25:25;102420.00;;;5.19;100.00
47054;BME280;32811;52.382;5.270;2023-04-02T09:28:00;102412.44;;;5.20;100.00
47054;BME280;32811;52.382;5.270;2023-04-02T09:32:58;102429.41;;;5.53;100.00
47054;BME280;32811;52.382;5.270;2023-04-02T09:35:29;102434.31;;;5.82;100.00
47054;BME280;32811;52.382;5.270;2023-04-02T09:46:08;102433.81;;;5.72;100.00
47054;BME280;32811;52.382;5.270;2023-04-02T09:48:56;102430.59;;;5.59;100.00
47054;BME280;32811;52.382;5.270;2023-04-02T09:51:32;102451.72;;;5.72;100.00
47054;BME280;32811;52.382;5.270;2023-04-02T09:56:36;102451.81;;;6.43;100.00
47054;BME280;32811;52.382;5.270;2023-04-02T10:04:42;102457.63;;;6.21;100.00
47054;BME280;32811;52.382;5.270;2023-04-02T10:10:03;102470.22;;;6.35;100.00
47054;BME280;32811;52.382;5.270;2023-04-02T10:12:41;102467.22;;;6.08;100.00
47054;BME280;32811;52.382;5.270;2023-04-02T10:15:16;102460.59;;;6.13;100.00
47054;BME280;32811;52.382;5.270;2023-04-02T10:17:54;102471.19;;;6.37;100.00
47054;BME280;32811;52.382;5.270;2023-04-02T10:20:25;102473.00;;;6.39;100.00
47054;BME280;32811;52.382;5.270;2023-04-02T10:22:52;102478.69;;;6.34;100.00
47054;BME280;32811;52.382;5.270;2023-04-02T10:25:21;102483.91;;;6.35;100.00
47054;BME280;32811;52.382;5.270;2023-04-02T10:27:56;102488.53;;;6.60;100.00
47054;BME280;32811;52.382;5.270;2023-04-02T10:31:01;102495.25;;;6.40;100.00
47054;BME280;32811;52.382;5.270;2023-04-02T10:33:39;102491.38;;;6.49;100.00
47054;BME280;32811;52.382;5.270;2023-04-02T10:36:48;102498.84;;;6.80;100.00
47054;BME280;32811;52.382;5.270;2023-04-02T10:39:30;102502.53;;;6.49;100.00
47054;BME280;32811;52.382;5.270;2023-04-02T10:47:40;102506.91;;;6.70;100.00
47054;BME280;32811;52.382;5.270;2023-04-02T10:50:45;102510.25;;;7.04;100.00
47054;BME280;32811;52.382;5.270;2023-04-02T10:53:19;102494.97;;;7.07;100.00
47054;BME280;32811;52.382;5.270;2023-04-02T10:55:51;102488.63;;;7.19;100.00
47054;BME280;32811;52.382;5.270;2023-04-02T10:58:26;102476.06;;;7.25;100.00
47054;BME280;32811;52.382;5.270;2023-04-02T11:01:01;102495.03;;;7.09;100.00
47054;BME280;32811;52.382;5.270;2023-04-02T11:03:43;102491.94;;;7.16;100.00
47054;BME280;32811;52.382;5.270;2023-04-02T11:06:23;102512.84;;;6.86;100.00
47054;BME280;32811;52.382;5.270;2023-04-02T11:08:57;102490.50;;;6.66;100.00
47054;BME280;32811;52.382;5.270;2023-04-02T11:11:31;102482.16;;;6.70;100.00
47054;BME280;32811;52.382;5.270;2023-04-02T11:16:48;102516.47;;;7.10;100.00
47054;BME280;32811;52.382;5.270;2023-04-02T11:21:52;102519.94;;;7.30;100.00
47054;BME280;32811;52.382;5.270;2023-04-02T11:29:39;102524.41;;;7.34;100.00
47054;BME280;32811;52.382;5.270;2023-04-02T11:32:25;102505.56;;;6.96;100.00
47054;BME280;32811;52.382;5.270;2023-04-02T11:35:02;102546.44;;;7.28;100.00
47054;BME280;32811;52.382;5.270;2023-04-02T11:37:43;102547.34;;;7.48;100.00
47054;BME280;32811;52.382;5.270;2023-04-02T11:42:39;102548.50;;;7.55;100.00
47054;BME280;32811;52.382;5.270;2023-04-02T11:50:38;102554.88;;;7.45;100.00
47054;BME280;32811;52.382;5.270;2023-04-02T11:55:40;102559.44;;;7.51;100.00
47054;BME280;32811;52.382;5.270;2023-04-02T12:09:29;102569.44;;;7.84;100.00
47054;BME280;32811;52.382;5.270;2023-04-02T12:12:28;102578.03;;;8.04;99.36
47054;BME280;32811;52.382;5.270;2023-04-02T12:14:58;102584.53;;;7.76;93.13
47054;BME280;32811;52.382;5.270;2023-04-02T12:17:33;102581.84;;;8.14;100.00
47054;BME280;32811;52.382;5.270;2023-04-02T12:22:39;102562.25;;;7.96;98.73
47054;BME280;32811;52.382;5.270;2023-04-02T12:25:36;102586.31;;;8.18;99.19
47054;BME280;32811;52.382;5.270;2023-04-02T12:30:36;102574.44;;;8.21;96.99
47054;BME280;32811;52.382;5.270;2023-04-02T12:35:46;102571.81;;;8.20;100.00
47054;BME280;32811;52.382;5.270;2023-04-02T12:38:23;102589.31;;;8.48;100.00
47054;BME280;32811;52.382;5.270;2023-04-02T12:40:55;102579.25;;;8.33;99.19
47054;BME280;32811;52.382;5.270;2023-04-02T12:43:30;102591.72;;;8.64;100.00
47054;BME280;32811;52.382;5.270;2023-04-02T12:45:59;102602.50;;;8.56;100.00
47054;BME280;32811;52.382;5.270;2023-04-02T12:48:27;102593.56;;;8.47;100.00
47054;BME280;32811;52.382;5.270;2023-04-02T12:50:56;102595.22;;;8.45;93.64
47054;BME280;32811;52.382;5.270;2023-04-02T12:53:26;102600.34;;;8.45;93.73
47054;BME280;32811;52.382;5.270;2023-04-02T12:55:54;102591.53;;;8.60;95.53
47054;BME280;32811;52.382;5.270;2023-04-02T12:58:35;102576.75;;;8.77;100.00
47054;BME280;32811;52.382;5.270;2023-04-02T13:01:15;102595.34;;;8.69;96.18
47054;BME280;32811;52.382;5.270;2023-04-02T13:06:29;102595.91;;;8.62;100.00
47054;BME280;32811;52.382;5.270;2023-04-02T13:08:58;102600.03;;;8.59;94.49
47054;BME280;32811;52.382;5.270;2023-04-02T13:11:35;102602.31;;;8.51;98.33
47054;BME280;32811;52.382;5.270;2023-04-02T13:14:05;102587.31;;;8.62;96.46
47054;BME280;32811;52.382;5.270;2023-04-02T13:16:34;102607.53;;;8.73;98.29
47054;BME280;32811;52.382;5.270;2023-04-02T13:19:29;102604.59;;;8.64;93.54
47054;BME280;32811;52.382;5.270;2023-04-02T13:21:58;102599.94;;;8.56;93.22
47054;BME280;32811;52.382;5.270;2023-04-02T13:24:32;102613.69;;;8.37;92.79
47054;BME280;32811;52.382;5.270;2023-04-02T13:27:00;102607.88;;;8.41;96.67
47054;BME280;32811;52.382;5.270;2023-04-02T13:29:33;102600.69;;;8.53;93.73
47054;BME280;32811;52.382;5.270;2023-04-02T13:32:02;102599.38;;;8.42;90.27
47054;BME280;32811;52.382;5.270;2023-04-02T13:34:29;102597.94;;;8.48;99.71
47054;BME280;32811;52.382;5.270;2023-04-02T13:36:56;102575.84;;;8.34;100.00
47054;BME280;32811;52.382;5.270;2023-04-02T13:39:23;102601.56;;;8.54;84.38
47054;BME280;32811;52.382;5.270;2023-04-02T13:41:58;102601.53;;;8.75;95.80
47054;BME280;32811;52.382;5.270;2023-04-02T13:44:26;102611.84;;;8.75;88.74
47054;BME280;32811;52.382;5.270;2023-04-02T13:46:53;102601.44;;;8.71;96.65
47054;BME280;32811;52.382;5.270;2023-04-02T13:49:21;102596.72;;;8.82;99.11
47054;BME280;32811;52.382;5.270;2023-04-02T13:51:50;102603.09;;;8.92;93.86
47054;BME280;32811;52.382;5.270;2023-04-02T13:54:30;102603.78;;;8.88;85.83
47054;BME280;32811;52.382;5.270;2023-04-02T13:57:00;102614.41;;;8.96;85.45
47054;BME280;32811;52.382;5.270;2023-04-02T13:59:27;102619.41;;;8.92;83.07
47054;BME280;32811;52.382;5.270;2023-04-02T14:01:56;102614.50;;;8.76;80.89
47054;BME280;32811;52.382;5.270;2023-04-02T14:04:30;102622.75;;;8.90;84.86
47054;BME280;32811;52.382;5.270;2023-04-02T14:12:27;102623.03;;;9.19;85.03
47054;BME280;32811;52.382;5.270;2023-04-02T14:18:05;102635.91;;;9.19;82.39
47054;BME280;32811;52.382;5.270;2023-04-02T14:20:51;102637.38;;;9.12;86.47
47054;BME280;32811;52.382;5.270;2023-04-02T14:23:24;102630.47;;;9.11;80.00
47054;BME280;32811;52.382;5.270;2023-04-02T14:28:53;102629.91;;;9.20;78.67
47054;BME280;32811;52.382;5.270;2023-04-02T14:34:45;102638.31;;;9.37;80.92
47054;BME280;32811;52.382;5.270;2023-04-02T14:37:22;102639.72;;;9.28;88.21
47054;BME280;32811;52.382;5.270;2023-04-02T14:40:09;102641.00;;;9.17;83.33
47054;BME280;32811;52.382;5.270;2023-04-02T14:42:49;102652.56;;;9.06;86.09
47054;BME280;32811;52.382;5.270;2023-04-02T14:51:40;102664.47;;;9.02;83.33
47054;BME280;32811;52.382;5.270;2023-04-02T14:54:20;102663.97;;;9.11;79.66
47054;BME280;32811;52.382;5.270;2023-04-02T14:57:08;102672.25;;;9.04;82.16
47054;BME280;32811;52.382;5.270;2023-04-02T15:05:02;102668.78;;;9.24;78.38
47054;BME280;32811;52.382;5.270;2023-04-02T15:07:50;102671.81;;;9.14;78.24
47054;BME280;32811;52.382;5.270;2023-04-02T15:10:40;102675.72;;;9.04;77.75
47054;BME280;32811;52.382;5.270;2023-04-02T15:13:26;102666.97;;;9.01;83.63
47054;BME280;32811;52.382;5.270;2023-04-02T15:16:06;102669.16;;;9.12;88.86
47054;BME280;32811;52.382;5.270;2023-04-02T15:18:39;102679.47;;;9.12;87.96
47054;BME280;32811;52.382;5.270;2023-04-02T15:21:59;102684.41;;;9.29;85.32
47054;BME280;32811;52.382;5.270;2023-04-02T15:24:57;102687.25;;;9.14;86.94
47054;BME280;32811;52.382;5.270;2023-04-02T15:27:43;102679.34;;;9.09;80.44
47054;BME280;32811;52.382;5.270;2023-04-02T15:30:43;102676.84;;;9.11;86.98
47054;BME280;32811;52.382;5.270;2023-04-02T15:33:33;102680.75;;;9.24;90.94
47054;BME280;32811;52.382;5.270;2023-04-02T15:44:28;102685.19;;;9.49;86.87
47054;BME280;32811;52.382;5.270;2023-04-02T15:47:22;102698.28;;;9.32;81.52
47054;BME280;32811;52.382;5.270;2023-04-02T15:56:46;102681.38;;;8.96;80.42
47054;BME280;32811;52.382;5.270;2023-04-02T16:02:36;102687.88;;;9.08;87.41
47054;BME280;32811;52.382;5.270;2023-04-02T16:10:48;102707.94;;;8.94;84.59
47054;BME280;32811;52.382;5.270;2023-04-02T16:18:59;102708.19;;;8.80;93.35
47054;BME280;32811;52.382;5.270;2023-04-02T16:21:31;102719.66;;;8.88;91.65
47054;BME280;32811;52.382;5.270;2023-04-02T16:23:59;102720.81;;;8.73;95.81
47054;BME280;32811;52.382;5.270;2023-04-02T16:35:47;102732.75;;;8.52;86.86
47054;BME280;32811;52.382;5.270;2023-04-02T16:38:23;102734.44;;;8.51;93.96
47054;BME280;32811;52.382;5.270;2023-04-02T16:41:08;102718.66;;;8.44;93.83